createdAt,value
2022-08-17T00:02:30.305Z,99797.09
2022-08-17T00:05:45.257Z,99810.72
2022-08-17T00:08:53.811Z,99801.44
2022-08-17T00:12:43.430Z,99811.84
2022-08-17T00:15:21.577Z,99810.87
2022-08-17T00:19:01.748Z,99810.59
2022-08-17T00:22:33.213Z,99814.72
2022-08-17T00:25:15.013Z,99804.75
2022-08-17T00:28:17.674Z,99797.78
2022-08-17T00:31:21.759Z,99812.25
2022-08-17T00:34:25.309Z,99810.28
2022-08-17T00:37:30.707Z,99806.12
2022-08-17T00:40:40.713Z,99810.28
2022-08-17T00:43:54.848Z,99807.12
2022-08-17T00:46:57.345Z,99804.16
2022-08-17T00:50:00.444Z,99805.31
2022-08-17T00:53:05.051Z,99798.38
2022-08-17T00:56:14.525Z,99810.34
2022-08-17T00:59:21.697Z,99820.34
2022-08-17T01:02:24.849Z,99823.09
2022-08-17T01:05:30.990Z,99824.25
2022-08-17T01:08:35.772Z,99823.84
2022-08-17T01:11:39.502Z,99829.88
2022-08-17T01:14:42.288Z,99824.63
2022-08-17T01:17:46.460Z,99822.38
2022-08-17T01:20:53.717Z,99826.53
2022-08-17T01:23:56.817Z,99828.94
2022-08-17T01:26:59.821Z,99837.69
2022-08-17T01:30:57.777Z,99839.66
2022-08-17T01:33:30.593Z,99838.94
2022-08-17T01:36:33.086Z,99833.94
2022-08-17T01:39:45.098Z,99828.84
2022-08-17T01:42:56.809Z,99837.97
2022-08-17T01:46:02.639Z,99828.31
2022-08-17T01:49:08.918Z,99831.06
2022-08-17T01:52:12.680Z,99823.44
2022-08-17T01:55:23.403Z,99827.59
2022-08-17T01:58:28.729Z,99828.59
2022-08-17T02:01:33.775Z,99823.72
2022-08-17T02:04:36.658Z,99827.19
2022-08-17T02:07:56.015Z,99819.16
2022-08-17T02:11:11.576Z,99828.03
2022-08-17T02:14:14.557Z,99834.97
2022-08-17T02:17:17.368Z,99829.00
2022-08-17T02:20:41.684Z,99825.69
2022-08-17T02:23:47.668Z,99828.59
2022-08-17T02:26:50.368Z,99826.09
2022-08-17T02:29:53.953Z,99825.00
2022-08-17T02:32:56.710Z,99818.75
2022-08-17T02:35:59.485Z,99823.06
2022-08-17T02:39:07.636Z,99823.06
2022-08-17T02:42:10.412Z,99816.00
2022-08-17T02:45:16.094Z,99820.97
2022-08-17T02:48:30.778Z,99816.69
2022-08-17T02:51:35.273Z,99815.00
2022-08-17T02:54:41.056Z,99820.56
2022-08-17T02:57:45.020Z,99818.91
2022-08-17T03:00:48.598Z,99830.53
2022-08-17T03:03:51.169Z,99830.69
2022-08-17T03:06:53.951Z,99832.91
2022-08-17T03:09:56.449Z,99824.31
2022-08-17T03:12:59.724Z,99827.75
2022-08-17T03:16:02.241Z,99822.78
2022-08-17T03:19:05.236Z,99827.34
2022-08-17T03:22:36.456Z,99830.94
2022-08-17T03:25:35.663Z,99829.00
2022-08-17T03:28:39.065Z,99845.91
2022-08-17T03:31:41.825Z,99841.91
2022-08-17T03:34:44.343Z,99840.47
2022-08-17T03:37:47.340Z,99848.50
2022-08-17T03:41:00.062Z,99846.13
2022-08-17T03:44:03.803Z,99852.34
2022-08-17T03:47:24.840Z,99856.47
2022-08-17T03:50:47.595Z,99849.56
2022-08-17T03:54:17.166Z,99856.72
2022-08-17T03:57:20.353Z,99862.69
2022-08-17T04:00:23.173Z,99862.16
2022-08-17T04:03:25.975Z,99867.84
2022-08-17T04:06:28.746Z,99866.03
2022-08-17T04:09:31.658Z,99870.06
2022-08-17T04:12:50.581Z,99871.06
2022-08-17T04:15:54.220Z,99869.81
2022-08-17T04:18:57.008Z,99864.25
2022-08-17T04:21:59.775Z,99871.91
2022-08-17T04:25:22.323Z,99877.41
2022-08-17T04:28:25.167Z,99880.91
2022-08-17T04:31:27.867Z,99878.47
2022-08-17T04:34:30.688Z,99879.00
2022-08-17T04:37:33.182Z,99884.31
2022-08-17T04:40:54.738Z,99890.41
2022-08-17T04:43:58.615Z,99888.75
2022-08-17T04:47:01.506Z,99890.16
2022-08-17T04:50:04.436Z,99889.59
2022-08-17T04:53:07.646Z,99890.69
2022-08-17T04:56:16.970Z,99892.66
2022-08-17T04:59:22.451Z,99898.62
2022-08-17T05:02:24.945Z,99898.56
2022-08-17T05:05:31.114Z,99904.47
2022-08-17T05:08:33.729Z,99902.28
2022-08-17T05:11:37.413Z,99894.66
2022-08-17T05:14:39.903Z,99900.06
2022-08-17T05:17:43.485Z,99911.97
2022-08-17T05:20:46.753Z,99918.03
2022-08-17T05:23:50.472Z,99907.84
2022-08-17T05:27:01.396Z,99917.09
2022-08-17T05:30:09.299Z,99913.94
2022-08-17T05:33:16.569Z,99914.47
2022-08-17T05:36:41.592Z,99911.13
2022-08-17T05:39:42.060Z,99905.81
2022-08-17T05:42:44.809Z,99906.84
2022-08-17T05:46:05.520Z,99904.81
2022-08-17T05:49:09.575Z,99902.00
2022-08-17T05:52:25.697Z,99905.88
2022-08-17T05:55:58.446Z,99907.28
2022-08-17T05:59:27.950Z,99910.31
2022-08-17T06:03:04.463Z,99916.34
2022-08-17T06:06:13.135Z,99921.88
2022-08-17T06:09:30.260Z,99915.31
2022-08-17T06:12:59.697Z,99917.47
2022-08-17T06:16:04.371Z,99919.81
2022-08-17T06:19:38.408Z,99916.84
2022-08-17T06:22:52.565Z,99920.69
2022-08-17T06:26:03.724Z,99922.19
2022-08-17T06:29:25.181Z,99925.47
2022-08-17T06:32:29.380Z,99929.91
2022-08-17T06:35:47.622Z,99926.47
2022-08-17T06:38:55.681Z,99934.72
2022-08-17T06:42:54.983Z,99924.81
2022-08-17T06:45:49.097Z,99934.59
2022-08-17T06:49:13.931Z,99926.47
2022-08-17T06:52:42.173Z,99930.13
2022-08-17T06:55:52.353Z,99924.97
2022-08-17T06:58:57.782Z,99925.94
2022-08-17T07:02:05.632Z,99917.94
2022-08-17T07:05:09.716Z,99924.50
2022-08-17T07:08:35.253Z,99926.38
2022-08-17T07:11:51.834Z,99926.50
2022-08-17T07:15:17.416Z,99929.44
2022-08-17T07:18:21.418Z,99931.31
2022-08-17T07:21:38.686Z,99927.63
2022-08-17T07:24:52.792Z,99932.91
2022-08-17T07:27:59.739Z,99924.97
2022-08-17T07:31:04.655Z,99923.97
2022-08-17T07:34:14.463Z,99920.78
2022-08-17T07:37:19.556Z,99922.16
2022-08-17T07:40:34.051Z,99924.09
2022-08-17T07:43:39.547Z,99923.41
2022-08-17T07:47:12.323Z,99924.84
2022-08-17T07:50:29.269Z,99921.44
2022-08-17T07:53:32.065Z,99917.84
2022-08-17T07:56:53.531Z,99922.16
2022-08-17T08:00:02.131Z,99921.09
2022-08-17T08:03:27.311Z,99920.41
2022-08-17T08:06:37.901Z,99925.37
2022-08-17T08:09:42.569Z,99921.34
2022-08-17T08:12:48.307Z,99925.16
2022-08-17T08:16:19.807Z,99920.50
2022-08-17T08:19:25.565Z,99922.47
2022-08-17T08:23:02.991Z,99918.34
2022-08-17T08:26:33.800Z,99920.41
2022-08-17T08:29:39.821Z,99916.72
2022-08-17T08:33:12.552Z,99920.47
2022-08-17T08:37:14.295Z,99919.31
2022-08-17T08:40:18.023Z,99923.28
2022-08-17T08:43:52.860Z,99920.81
2022-08-17T08:47:07.361Z,99919.81
2022-08-17T08:50:40.269Z,99923.34
2022-08-17T08:54:05.966Z,99922.25
2022-08-17T08:57:24.366Z,99914.47
2022-08-17T09:00:36.131Z,99909.50
2022-08-17T09:03:52.795Z,99898.81
2022-08-17T09:07:39.080Z,99906.59
2022-08-17T09:11:04.918Z,99897.69
2022-08-17T09:14:21.478Z,99899.03
2022-08-17T09:17:36.157Z,99902.94
2022-08-17T09:20:50.305Z,99903.47
2022-08-17T09:24:00.110Z,99902.50
2022-08-17T09:27:19.641Z,99904.53
2022-08-17T09:30:33.613Z,99902.69
2022-08-17T09:33:43.228Z,99909.91
2022-08-17T09:36:56.460Z,99898.84
2022-08-17T09:40:17.309Z,99889.19
2022-08-17T09:43:36.363Z,99897.22
2022-08-17T09:46:53.344Z,99890.59
2022-08-17T09:50:01.549Z,99891.94
2022-08-17T09:53:04.439Z,99883.31
2022-08-17T09:56:10.114Z,99882.31
2022-08-17T09:59:45.958Z,99883.72
2022-08-17T10:03:26.051Z,99876.69
2022-08-17T10:06:33.623Z,99881.63
2022-08-17T10:09:39.190Z,99880.56
2022-08-17T10:12:47.104Z,99883.75
2022-08-17T10:16:01.894Z,99890.34
2022-08-17T10:19:23.033Z,99885.31
2022-08-17T10:22:54.999Z,99890.97
2022-08-17T10:26:16.596Z,99889.41
2022-08-17T10:29:26.917Z,99875.72
2022-08-17T10:32:46.038Z,99878.03
2022-08-17T10:35:52.802Z,99876.19
2022-08-17T10:39:21.301Z,99866.53
2022-08-17T10:42:33.332Z,99874.78
2022-08-17T10:45:51.473Z,99876.47
2022-08-17T10:49:29.399Z,99870.69
2022-08-17T10:52:32.301Z,99885.69
2022-08-17T10:55:34.868Z,99879.03
2022-08-17T10:58:59.193Z,99881.38
2022-08-17T11:02:04.637Z,99875.44
2022-08-17T11:05:44.226Z,99868.44
2022-08-17T11:09:02.757Z,99868.06
2022-08-17T11:12:31.185Z,99870.75
2022-08-17T11:15:52.139Z,99866.56
2022-08-17T11:19:52.374Z,99866.44
2022-08-17T11:23:19.669Z,99865.50
2022-08-17T11:26:27.271Z,99859.78
2022-08-17T11:29:37.468Z,99856.13
2022-08-17T11:32:54.583Z,99855.84
2022-08-17T11:36:33.344Z,99850.97
2022-08-17T11:40:13.220Z,99843.69
2022-08-17T11:43:38.355Z,99850.16
2022-08-17T11:47:36.595Z,99842.41
2022-08-17T11:51:12.362Z,99841.22
2022-08-17T11:54:34.678Z,99837.81
2022-08-17T11:57:40.371Z,99836.53
2022-08-17T12:00:46.427Z,99831.13
2022-08-17T12:03:55.906Z,99828.03
2022-08-17T12:07:16.789Z,99832.47
2022-08-17T12:10:31.676Z,99835.72
2022-08-17T12:13:47.783Z,99827.22
2022-08-17T12:17:05.527Z,99819.56
2022-08-17T12:20:15.560Z,99808.59
2022-08-17T12:23:41.454Z,99811.56
2022-08-17T12:26:57.028Z,99802.44
2022-08-17T12:30:09.686Z,99802.66
2022-08-17T12:33:28.134Z,99800.88
2022-08-17T12:36:33.838Z,99804.09
2022-08-17T12:40:11.401Z,99803.13
2022-08-17T12:43:27.486Z,99803.97
2022-08-17T12:46:44.779Z,99804.69
2022-08-17T12:49:51.403Z,99807.72
2022-08-17T12:52:59.734Z,99799.44
2022-08-17T12:56:12.060Z,99804.31
2022-08-17T12:59:15.660Z,99794.16
2022-08-17T13:02:47.267Z,99792.81
2022-08-17T13:05:52.528Z,99800.69
2022-08-17T13:08:55.478Z,99795.37
2022-08-17T13:12:02.226Z,99790.88
2022-08-17T13:15:05.636Z,99790.97
2022-08-17T13:18:33.810Z,99785.03
2022-08-17T13:21:37.999Z,99790.88
2022-08-17T13:24:53.082Z,99790.88
2022-08-17T13:27:56.797Z,99789.22
2022-08-17T13:31:27.851Z,99791.91
2022-08-17T13:35:14.219Z,99777.81
2022-08-17T13:38:37.587Z,99771.13
2022-08-17T13:41:40.663Z,99769.31
2022-08-17T13:44:43.272Z,99767.69
2022-08-17T13:47:46.190Z,99782.75
2022-08-17T13:50:56.342Z,99775.19
2022-08-17T13:54:02.690Z,99776.69
2022-08-17T13:57:07.405Z,99776.53
2022-08-17T14:00:30.677Z,99784.09
2022-08-17T14:03:33.569Z,99769.03
2022-08-17T14:07:15.444Z,99770.00
2022-08-17T14:10:18.929Z,99761.66
2022-08-17T14:13:21.482Z,99769.78
2022-08-17T14:16:24.328Z,99769.78
2022-08-17T14:19:26.953Z,99770.19
2022-08-17T14:22:32.351Z,99762.28
2022-08-17T14:25:35.141Z,99763.47
2022-08-17T14:28:38.805Z,99765.72
2022-08-17T14:31:54.297Z,99772.78
2022-08-17T14:34:59.586Z,99759.88
2022-08-17T14:38:02.277Z,99754.47
2022-08-17T14:41:05.484Z,99761.59
2022-08-17T14:44:12.470Z,99760.50
2022-08-17T14:47:15.945Z,99765.59
2022-08-17T14:50:21.144Z,99752.81
2022-08-17T14:53:25.155Z,99767.81
2022-08-17T14:56:28.212Z,99766.56
2022-08-17T14:59:38.182Z,99762.81
2022-08-17T15:02:53.778Z,99766.50
2022-08-17T15:05:56.845Z,99768.97
2022-08-17T15:08:59.415Z,99758.88
2022-08-17T15:12:03.787Z,99763.91
2022-08-17T15:15:09.262Z,99760.28
2022-08-17T15:18:12.546Z,99761.22
2022-08-17T15:21:15.975Z,99764.06
2022-08-17T15:24:19.006Z,99760.53
2022-08-17T15:27:24.229Z,99757.94
2022-08-17T15:30:36.202Z,99760.62
2022-08-17T15:33:38.795Z,99764.94
2022-08-17T15:36:49.491Z,99765.94
2022-08-17T15:39:53.049Z,99761.00
2022-08-17T15:42:57.778Z,99757.22
2022-08-17T15:46:12.344Z,99752.56
2022-08-17T15:49:15.485Z,99755.78
2022-08-17T15:52:26.488Z,99764.09
2022-08-17T15:55:31.162Z,99759.56
2022-08-17T15:58:35.511Z,99765.34
2022-08-17T16:03:01.076Z,99763.88
2022-08-17T16:05:13.962Z,99760.94
2022-08-17T16:08:21.375Z,99763.78
2022-08-17T16:11:24.660Z,99757.94
2022-08-17T16:14:33.845Z,99751.03
2022-08-17T16:17:39.709Z,99759.25
2022-08-17T16:20:44.364Z,99759.03
2022-08-17T16:23:49.611Z,99755.78
2022-08-17T16:26:52.124Z,99760.81
2022-08-17T16:29:55.537Z,99748.84
2022-08-17T16:33:00.610Z,99756.94
2022-08-17T16:36:03.900Z,99752.56
2022-08-17T16:39:07.462Z,99752.75
2022-08-17T16:42:28.990Z,99745.19
2022-08-17T16:45:40.241Z,99748.38
2022-08-17T16:48:44.434Z,99743.75
2022-08-17T16:51:48.432Z,99738.78
2022-08-17T16:54:52.010Z,99743.69
2022-08-17T16:57:54.582Z,99741.56
2022-08-17T17:00:59.505Z,99742.91
2022-08-17T17:04:05.425Z,99740.09
2022-08-17T17:07:38.022Z,99759.81
2022-08-17T17:10:53.197Z,99756.06
2022-08-17T17:13:59.988Z,99758.13
2022-08-17T17:17:06.013Z,99755.97
2022-08-17T17:20:21.754Z,99756.91
2022-08-17T17:23:35.644Z,99758.44
2022-08-17T17:26:53.857Z,99765.78
2022-08-17T17:29:56.327Z,99760.13
2022-08-17T17:33:05.937Z,99764.31
2022-08-17T17:36:27.185Z,99764.25
2022-08-17T17:39:59.898Z,99770.75
2022-08-17T17:43:34.893Z,99781.41
2022-08-17T17:46:39.957Z,99785.63
2022-08-17T17:49:46.027Z,99780.97
2022-08-17T17:53:09.566Z,99783.84
2022-08-17T17:56:43.015Z,99789.47
2022-08-17T17:59:59.091Z,99790.50
2022-08-17T18:03:11.081Z,99790.28
2022-08-17T18:06:40.934Z,99795.16
2022-08-17T18:10:04.451Z,99789.56
2022-08-17T18:14:01.914Z,99786.00
2022-08-17T18:17:06.509Z,99798.66
2022-08-17T18:20:09.502Z,99802.41
2022-08-17T18:23:12.685Z,99802.13
2022-08-17T18:26:34.270Z,99806.78
2022-08-17T18:29:42.759Z,99805.88
2022-08-17T18:32:46.745Z,99817.25
2022-08-17T18:35:59.275Z,99813.44
2022-08-17T18:39:16.555Z,99811.09
2022-08-17T18:42:28.641Z,99818.63
2022-08-17T18:45:41.019Z,99818.09
2022-08-17T18:48:53.554Z,99826.00
2022-08-17T18:52:27.677Z,99829.94
2022-08-17T18:55:31.304Z,99829.41
2022-08-17T18:58:34.589Z,99829.91
2022-08-17T19:02:08.945Z,99834.72
2022-08-17T19:05:33.077Z,99832.72
2022-08-17T19:08:38.156Z,99832.34
2022-08-17T19:11:41.044Z,99835.47
2022-08-17T19:14:44.035Z,99834.53
2022-08-17T19:17:55.363Z,99830.97
2022-08-17T19:21:07.789Z,99837.19
2022-08-17T19:24:19.618Z,99846.06
2022-08-17T19:27:46.507Z,99842.69
2022-08-17T19:31:04.009Z,99850.28
2022-08-17T19:34:06.581Z,99851.03
2022-08-17T19:37:29.452Z,99856.91
2022-08-17T19:40:56.073Z,99848.63
2022-08-17T19:44:32.887Z,99858.63
2022-08-17T19:48:04.317Z,99854.84
2022-08-17T19:51:17.837Z,99860.25
2022-08-17T19:54:42.210Z,99860.12
2022-08-17T19:57:54.354Z,99855.53
2022-08-17T20:00:57.669Z,99854.69
2022-08-17T20:04:11.573Z,99862.38
2022-08-17T20:07:20.932Z,99852.06
2022-08-17T20:10:37.292Z,99854.16
2022-08-17T20:14:03.765Z,99851.00
2022-08-17T20:17:06.914Z,99854.53
2022-08-17T20:20:37.732Z,99857.56
2022-08-17T20:24:03.153Z,99856.09
2022-08-17T20:27:18.481Z,99849.63
2022-08-17T20:30:40.809Z,99857.31
2022-08-17T20:33:43.851Z,99852.19
2022-08-17T20:37:24.118Z,99850.06
2022-08-17T20:40:31.204Z,99846.28
2022-08-17T20:43:33.983Z,99845.97
2022-08-17T20:46:36.498Z,99845.81
2022-08-17T20:49:49.340Z,99845.34
2022-08-17T20:53:00.402Z,99838.88
2022-08-17T20:56:03.390Z,99844.84
2022-08-17T20:59:05.959Z,99842.22
2022-08-17T21:02:19.985Z,99845.72
2022-08-17T21:05:34.462Z,99845.88
2022-08-17T21:08:53.201Z,99848.06
2022-08-17T21:12:04.469Z,99844.25
2022-08-17T21:15:23.731Z,99849.25
2022-08-17T21:18:51.748Z,99849.25
2022-08-17T21:22:16.572Z,99854.38
2022-08-17T21:25:43.019Z,99849.94
2022-08-17T21:29:01.724Z,99856.72
2022-08-17T21:32:30.067Z,99861.66
2022-08-17T21:36:00.344Z,99863.66
2022-08-17T21:39:09.940Z,99859.66
2022-08-17T21:42:12.996Z,99859.66
2022-08-17T21:45:27.431Z,99868.47
2022-08-17T21:48:40.757Z,99870.13
2022-08-17T21:51:55.309Z,99870.94
2022-08-17T21:55:03.310Z,99869.47
2022-08-17T21:58:28.833Z,99870.13
2022-08-17T22:01:50.609Z,99875.25
2022-08-17T22:05:02.872Z,99878.00
2022-08-17T22:08:09.677Z,99879.66
2022-08-17T22:11:19.606Z,99889.91
2022-08-17T22:14:53.444Z,99893.00
2022-08-17T22:17:58.580Z,99896.00
2022-08-17T22:21:05.224Z,99906.69
2022-08-17T22:24:21.636Z,99897.44
2022-08-17T22:27:45.808Z,99898.75
2022-08-17T22:31:04.391Z,99903.84
2022-08-17T22:34:14.523Z,99903.47
2022-08-17T22:37:27.940Z,99904.94
2022-08-17T22:40:32.907Z,99912.72
2022-08-17T22:43:38.492Z,99908.53
2022-08-17T22:46:56.519Z,99916.63
2022-08-17T22:50:02.513Z,99925.41
2022-08-17T22:53:38.025Z,99949.53
2022-08-17T22:57:11.736Z,99952.00
2022-08-17T23:00:28.908Z,99944.75
2022-08-17T23:03:31.800Z,99951.16
2022-08-17T23:06:36.044Z,99954.31
2022-08-17T23:09:39.380Z,99961.56
2022-08-17T23:12:42.219Z,99969.47
2022-08-17T23:15:45.907Z,99973.41
2022-08-17T23:18:52.244Z,99971.94
2022-08-17T23:21:57.161Z,99977.41
2022-08-17T23:24:59.855Z,99983.91
2022-08-17T23:28:05.368Z,99978.53
2022-08-17T23:31:07.940Z,99979.31
2022-08-17T23:34:13.518Z,99975.34
2022-08-17T23:37:19.929Z,99974.28
2022-08-17T23:40:27.645Z,99965.63
2022-08-17T23:43:31.614Z,99963.56
2022-08-17T23:46:34.731Z,99957.38
2022-08-17T23:49:37.589Z,99957.44
2022-08-17T23:52:43.220Z,99966.47
2022-08-17T23:55:46.365Z,99958.44
2022-08-17T23:59:09.225Z,99958.69
